sensor_id;sensor_type;location;lat;lon;timestamp;temperature;humidity
31979;DHT22;18502;43.574;1.276;2022-11-20T00:00:40;4.90;99.90
31979;DHT22;18502;43.574;1.276;2022-11-20T00:03:06;4.80;99.90
31979;DHT22;18502;43.574;1.276;2022-11-20T00:05:32;4.90;99.90
31979;DHT22;18502;43.574;1.276;2022-11-20T00:07:59;4.90;99.90
31979;DHT22;18502;43.574;1.276;2022-11-20T00:10:24;4.80;99.90
31979;DHT22;18502;43.574;1.276;2022-11-20T00:12:50;4.70;99.90
31979;DHT22;18502;43.574;1.276;2022-11-20T00:15:16;4.60;99.90
31979;DHT22;18502;43.574;1.276;2022-11-20T00:17:41;4.70;99.90
31979;DHT22;18502;43.574;1.276;2022-11-20T00:20:07;4.70;99.90
31979;DHT22;18502;43.574;1.276;2022-11-20T00:22:33;4.70;99.90
31979;DHT22;18502;43.574;1.276;2022-11-20T00:24:59;4.70;99.90
31979;DHT22;18502;43.574;1.276;2022-11-20T00:27:25;4.70;99.90
31979;DHT22;18502;43.574;1.276;2022-11-20T00:29:50;4.70;99.90
31979;DHT22;18502;43.574;1.276;2022-11-20T00:32:16;4.60;99.90
31979;DHT22;18502;43.574;1.276;2022-11-20T00:34:41;4.50;99.90
31979;DHT22;18502;43.574;1.276;2022-11-20T00:37:07;4.50;99.90
31979;DHT22;18502;43.574;1.276;2022-11-20T00:39:33;4.40;99.90
31979;DHT22;18502;43.574;1.276;2022-11-20T00:41:58;4.40;99.90
31979;DHT22;18502;43.574;1.276;2022-11-20T00:44:24;4.30;99.90
31979;DHT22;18502;43.574;1.276;2022-11-20T00:46:50;4.50;99.90
31979;DHT22;18502;43.574;1.276;2022-11-20T09:14:21;13.00;99.90
31979;DHT22;18502;43.574;1.276;2022-11-20T09:16:50;11.60;99.90
31979;DHT22;18502;43.574;1.276;2022-11-20T09:19:15;12.20;99.90
31979;DHT22;18502;43.574;1.276;2022-11-20T09:21:41;12.90;99.90
31979;DHT22;18502;43.574;1.276;2022-11-20T09:24:07;13.10;99.90
31979;DHT22;18502;43.574;1.276;2022-11-20T09:26:32;14.60;99.90
31979;DHT22;18502;43.574;1.276;2022-11-20T09:28:58;15.20;99.90
31979;DHT22;18502;43.574;1.276;2022-11-20T09:31:25;14.40;99.90
31979;DHT22;18502;43.574;1.276;2022-11-20T09:33:51;15.70;99.90
31979;DHT22;18502;43.574;1.276;2022-11-20T09:36:17;16.50;99.90
31979;DHT22;18502;43.574;1.276;2022-11-20T09:38:45;15.20;99.90
31979;DHT22;18502;43.574;1.276;2022-11-20T09:47:08;14.60;99.90
31979;DHT22;18502;43.574;1.276;2022-11-20T09:55:21;13.80;99.90
31979;DHT22;18502;43.574;1.276;2022-11-20T09:57:48;14.00;99.90
31979;DHT22;18502;43.574;1.276;2022-11-20T10:00:16;14.80;99.90
31979;DHT22;18502;43.574;1.276;2022-11-20T10:02:53;16.30;99.90
31979;DHT22;18502;43.574;1.276;2022-11-20T10:05:47;16.40;99.90
31979;DHT22;18502;43.574;1.276;2022-11-20T10:08:23;15.40;99.90
31979;DHT22;18502;43.574;1.276;2022-11-20T10:21:48;16.80;96.10
31979;DHT22;18502;43.574;1.276;2022-11-20T10:25:36;17.60;96.90
31979;DHT22;18502;43.574;1.276;2022-11-20T10:30:21;17.90;95.10
31979;DHT22;18502;43.574;1.276;2022-11-20T10:32:53;18.20;95.10
31979;DHT22;18502;43.574;1.276;2022-11-20T10:35:27;18.20;92.30
31979;DHT22;18502;43.574;1.276;2022-11-20T10:38:00;17.20;93.60
31979;DHT22;18502;43.574;1.276;2022-11-20T10:40:35;17.80;92.00
31979;DHT22;18502;43.574;1.276;2022-11-20T10:45:56;18.10;91.90
31979;DHT22;18502;43.574;1.276;2022-11-20T10:48:28;18.70;91.10
31979;DHT22;18502;43.574;1.276;2022-11-20T10:53:36;18.20;89.50
31979;DHT22;18502;43.574;1.276;2022-11-20T11:01:43;20.30;83.10
31979;DHT22;18502;43.574;1.276;2022-11-20T11:04:33;21.30;80.20
31979;DHT22;18502;43.574;1.276;2022-11-20T11:09:44;23.90;65.00
31979;DHT22;18502;43.574;1.276;2022-11-20T11:12:12;22.00;68.40
31979;DHT22;18502;43.574;1.276;2022-11-20T11:14:48;21.70;70.00
31979;DHT22;18502;43.574;1.276;2022-11-20T11:17:33;22.50;64.30
31979;DHT22;18502;43.574;1.276;2022-11-20T11:20:20;20.70;68.80
31979;DHT22;18502;43.574;1.276;2022-11-20T11:22:55;21.70;65.20
31979;DHT22;18502;43.574;1.276;2022-11-20T11:25:35;22.10;69.00
31979;DHT22;18502;43.574;1.276;2022-11-20T11:28:18;22.10;71.10
31979;DHT22;18502;43.574;1.276;2022-11-20T11:30:45;22.40;63.20
31979;DHT22;18502;43.574;1.276;2022-11-20T11:33:23;20.90;71.00
31979;DHT22;18502;43.574;1.276;2022-11-20T11:35:52;20.80;73.10
31979;DHT22;18502;43.574;1.276;2022-11-20T11:38:38;25.40;61.90
31979;DHT22;18502;43.574;1.276;2022-11-20T11:41:07;25.30;59.20
31979;DHT22;18502;43.574;1.276;2022-11-20T11:43:36;22.40;58.00
31979;DHT22;18502;43.574;1.276;2022-11-20T11:46:33;25.10;60.20
31979;DHT22;18502;43.574;1.276;2022-11-20T11:54:24;22.90;61.10
31979;DHT22;18502;43.574;1.276;2022-11-20T11:56:51;21.90;61.50
31979;DHT22;18502;43.574;1.276;2022-11-20T11:59:51;18.50;70.70
31979;DHT22;18502;43.574;1.276;2022-11-20T12:05:24;16.50;82.70
31979;DHT22;18502;43.574;1.276;2022-11-20T12:08:12;16.60;83.90
31979;DHT22;18502;43.574;1.276;2022-11-20T12:16:00;15.40;91.20
31979;DHT22;18502;43.574;1.276;2022-11-20T12:18:27;15.70;90.70
31979;DHT22;18502;43.574;1.276;2022-11-20T12:21:40;15.50;92.10
31979;DHT22;18502;43.574;1.276;2022-11-20T12:24:14;15.10;92.90
31979;DHT22;18502;43.574;1.276;2022-11-20T12:35:00;13.80;93.10
31979;DHT22;18502;43.574;1.276;2022-11-20T12:37:46;14.10;95.10
31979;DHT22;18502;43.574;1.276;2022-11-20T12:43:25;12.90;99.90
31979;DHT22;18502;43.574;1.276;2022-11-20T12:46:24;11.70;99.90
31979;DHT22;18502;43.574;1.276;2022-11-20T12:49:02;10.60;99.90
31979;DHT22;18502;43.574;1.276;2022-11-20T13:08:04;11.00;99.90
31979;DHT22;18502;43.574;1.276;2022-11-20T13:10:56;10.80;99.90
31979;DHT22;18502;43.574;1.276;2022-11-20T13:13:31;10.70;99.90
31979;DHT22;18502;43.574;1.276;2022-11-20T13:16:08;10.90;99.90
31979;DHT22;18502;43.574;1.276;2022-11-20T13:18:39;11.20;99.90
31979;DHT22;18502;43.574;1.276;2022-11-20T13:21:39;11.10;99.90
31979;DHT22;18502;43.574;1.276;2022-11-20T13:24:32;11.30;99.90
31979;DHT22;18502;43.574;1.276;2022-11-20T13:27:04;11.20;99.90
31979;DHT22;18502;43.574;1.276;2022-11-20T13:29:32;11.30;99.90
31979;DHT22;18502;43.574;1.276;2022-11-20T13:32:18;11.30;99.90
31979;DHT22;18502;43.574;1.276;2022-11-20T13:35:23;11.20;99.90
31979;DHT22;18502;43.574;1.276;2022-11-20T13:37:59;11.60;99.90
31979;DHT22;18502;43.574;1.276;2022-11-20T13:40:26;11.30;99.90
31979;DHT22;18502;43.574;1.276;2022-11-20T13:43:01;11.60;99.90
31979;DHT22;18502;43.574;1.276;2022-11-20T13:45:30;11.70;99.90
31979;DHT22;18502;43.574;1.276;2022-11-20T13:48:03;11.70;99.90
31979;DHT22;18502;43.574;1.276;2022-11-20T13:51:02;11.80;99.90
31979;DHT22;18502;43.574;1.276;2022-11-20T14:01:16;12.00;99.90
31979;DHT22;18502;43.574;1.276;2022-11-20T14:03:43;12.10;99.90
31979;DHT22;18502;43.574;1.276;2022-11-20T14:06:30;12.40;99.90
31979;DHT22;18502;43.574;1.276;2022-11-20T14:08:57;12.40;99.90
31979;DHT22;18502;43.574;1.276;2022-11-20T14:11:26;12.60;99.90
31979;DHT22;18502;43.574;1.276;2022-11-20T14:14:01;14.10;99.90
31979;DHT22;18502;43.574;1.276;2022-11-20T14:16:31;14.80;99.90
31979;DHT22;18502;43.574;1.276;2022-11-20T14:21:46;14.70;99.90
31979;DHT22;18502;43.574;1.276;2022-11-20T14:24:13;15.20;99.90
31979;DHT22;18502;43.574;1.276;2022-11-20T14:26:43;15.50;99.90
31979;DHT22;18502;43.574;1.276;2022-11-20T14:29:23;16.60;99.90
31979;DHT22;18502;43.574;1.276;2022-11-20T14:31:53;15.70;99.90
31979;DHT22;18502;43.574;1.276;2022-11-20T14:34:25;16.80;99.90
31979;DHT22;18502;43.574;1.276;2022-11-20T14:37:00;16.70;99.90
31979;DHT22;18502;43.574;1.276;2022-11-20T14:39:34;17.30;99.90
31979;DHT22;18502;43.574;1.276;2022-11-20T14:42:00;15.90;99.90
31979;DHT22;18502;43.574;1.276;2022-11-20T14:44:33;15.40;99.90
31979;DHT22;18502;43.574;1.276;2022-11-20T14:47:02;15.50;99.90
31979;DHT22;18502;43.574;1.276;2022-11-20T14:49:30;14.70;99.90
31979;DHT22;18502;43.574;1.276;2022-11-20T14:52:11;14.20;99.90
31979;DHT22;18502;43.574;1.276;2022-11-20T14:54:55;14.00;99.90
31979;DHT22;18502;43.574;1.276;2022-11-20T14:57:32;13.90;99.90
31979;DHT22;18502;43.574;1.276;2022-11-20T15:02:48;14.50;99.90
31979;DHT22;18502;43.574;1.276;2022-11-20T15:05:15;15.00;99.90
31979;DHT22;18502;43.574;1.276;2022-11-20T15:07:44;15.50;99.90
31979;DHT22;18502;43.574;1.276;2022-11-20T15:12:50;14.90;99.90
31979;DHT22;18502;43.574;1.276;2022-11-20T15:15:21;14.90;99.90
31979;DHT22;18502;43.574;1.276;2022-11-20T15:17:48;15.50;99.90
31979;DHT22;18502;43.574;1.276;2022-11-20T15:20:15;15.30;99.90
31979;DHT22;18502;43.574;1.276;2022-11-20T15:22:42;14.30;99.90
31979;DHT22;18502;43.574;1.276;2022-11-20T15:25:15;13.70;99.90
31979;DHT22;18502;43.574;1.276;2022-11-20T15:27:42;13.50;99.90
31979;DHT22;18502;43.574;1.276;2022-11-20T15:30:16;13.40;99.90
31979;DHT22;18502;43.574;1.276;2022-11-20T15:32:43;13.40;99.90
31979;DHT22;18502;43.574;1.276;2022-11-20T15:35:09;13.30;99.90
31979;DHT22;18502;43.574;1.276;2022-11-20T15:37:37;13.20;99.90
31979;DHT22;18502;43.574;1.276;2022-11-20T15:40:05;13.20;99.90
31979;DHT22;18502;43.574;1.276;2022-11-20T15:42:31;13.20;99.90
31979;DHT22;18502;43.574;1.276;2022-11-20T15:44:57;13.10;99.90
31979;DHT22;18502;43.574;1.276;2022-11-20T15:47:33;13.00;99.90
31979;DHT22;18502;43.574;1.276;2022-11-20T15:49:59;13.00;99.90
31979;DHT22;18502;43.574;1.276;2022-11-20T15:52:25;12.90;99.90
31979;DHT22;18502;43.574;1.276;2022-11-20T15:54:51;12.90;99.90
31979;DHT22;18502;43.574;1.276;2022-11-20T15:57:17;12.90;99.90
31979;DHT22;18502;43.574;1.276;2022-11-20T15:59:42;12.80;99.90
31979;DHT22;18502;43.574;1.276;2022-11-20T16:02:12;12.80;99.90
31979;DHT22;18502;43.574;1.276;2022-11-20T16:04:38;12.70;99.90
31979;DHT22;18502;43.574;1.276;2022-11-20T16:07:04;12.60;99.90
31979;DHT22;18502;43.574;1.276;2022-11-20T16:09:30;12.50;99.90
31979;DHT22;18502;43.574;1.276;2022-11-20T16:11:56;12.40;99.90
31979;DHT22;18502;43.574;1.276;2022-11-20T16:14:25;12.30;99.90
31979;DHT22;18502;43.574;1.276;2022-11-20T16:17:09;12.30;99.90
31979;DHT22;18502;43.574;1.276;2022-11-20T16:19:35;12.20;99.90
31979;DHT22;18502;43.574;1.276;2022-11-20T16:22:01;12.10;99.90
31979;DHT22;18502;43.574;1.276;2022-11-20T16:24:27;12.10;99.90
31979;DHT22;18502;43.574;1.276;2022-11-20T16:26:56;12.00;99.90
31979;DHT22;18502;43.574;1.276;2022-11-20T16:29:22;12.10;99.90
31979;DHT22;18502;43.574;1.276;2022-11-20T16:31:47;12.20;99.90
31979;DHT22;18502;43.574;1.276;2022-11-20T16:34:16;12.10;99.90
31979;DHT22;18502;43.574;1.276;2022-11-20T16:36:42;12.10;99.90
31979;DHT22;18502;43.574;1.276;2022-11-20T16:39:09;12.10;99.90
31979;DHT22;18502;43.574;1.276;2022-11-20T16:41:35;12.10;99.90
31979;DHT22;18502;43.574;1.276;2022-11-20T16:44:06;12.10;99.90
31979;DHT22;18502;43.574;1.276;2022-11-20T16:46:33;12.10;99.90
31979;DHT22;18502;43.574;1.276;2022-11-20T16:49:08;12.00;99.90
31979;DHT22;18502;43.574;1.276;2022-11-20T16:51:36;11.90;99.90
31979;DHT22;18502;43.574;1.276;2022-11-20T16:54:03;11.80;99.90
31979;DHT22;18502;43.574;1.276;2022-11-20T16:56:29;11.70;99.90
31979;DHT22;18502;43.574;1.276;2022-11-20T16:58:57;11.70;99.90
31979;DHT22;18502;43.574;1.276;2022-11-20T17:01:25;11.60;99.90
31979;DHT22;18502;43.574;1.276;2022-11-20T17:06:22;11.60;99.90
31979;DHT22;18502;43.574;1.276;2022-11-20T17:08:48;11.40;99.90
31979;DHT22;18502;43.574;1.276;2022-11-20T17:11:17;11.40;99.90
31979;DHT22;18502;43.574;1.276;2022-11-20T17:13:43;11.40;99.90
31979;DHT22;18502;43.574;1.276;2022-11-20T17:16:14;11.40;99.90
31979;DHT22;18502;43.574;1.276;2022-11-20T17:18:41;11.50;99.90
31979;DHT22;18502;43.574;1.276;2022-11-20T17:21:07;11.50;99.90
31979;DHT22;18502;43.574;1.276;2022-11-20T17:23:37;11.50;99.90
31979;DHT22;18502;43.574;1.276;2022-11-20T17:28:31;11.60;99.90
31979;DHT22;18502;43.574;1.276;2022-11-20T17:31:05;11.60;99.90
31979;DHT22;18502;43.574;1.276;2022-11-20T17:33:34;11.60;99.90
31979;DHT22;18502;43.574;1.276;2022-11-20T17:36:00;11.60;99.90
31979;DHT22;18502;43.574;1.276;2022-11-20T17:38:25;11.60;99.90
31979;DHT22;18502;43.574;1.276;2022-11-20T17:40:51;11.60;99.90
31979;DHT22;18502;43.574;1.276;2022-11-20T17:43:17;11.60;99.90
31979;DHT22;18502;43.574;1.276;2022-11-20T17:45:43;11.70;99.90
31979;DHT22;18502;43.574;1.276;2022-11-20T17:48:10;11.70;99.90
31979;DHT22;18502;43.574;1.276;2022-11-20T17:50:36;11.60;99.90
31979;DHT22;18502;43.574;1.276;2022-11-20T17:53:01;11.60;99.90
31979;DHT22;18502;43.574;1.276;2022-11-20T17:55:27;11.60;99.90
31979;DHT22;18502;43.574;1.276;2022-11-20T17:58:13;11.60;99.90
31979;DHT22;18502;43.574;1.276;2022-11-20T18:00:38;11.70;99.90
31979;DHT22;18502;43.574;1.276;2022-11-20T18:03:04;11.70;99.90
31979;DHT22;18502;43.574;1.276;2022-11-20T18:05:29;11.60;99.90
31979;DHT22;18502;43.574;1.276;2022-11-20T18:07:55;11.60;99.90
31979;DHT22;18502;43.574;1.276;2022-11-20T18:10:21;11.60;99.90
31979;DHT22;18502;43.574;1.276;2022-11-20T18:12:46;11.60;99.90
31979;DHT22;18502;43.574;1.276;2022-11-20T18:15:12;11.60;99.90
31979;DHT22;18502;43.574;1.276;2022-11-20T18:17:38;11.60;99.90
31979;DHT22;18502;43.574;1.276;2022-11-20T18:20:04;11.60;99.90
31979;DHT22;18502;43.574;1.276;2022-11-20T18:22:29;11.50;99.90
31979;DHT22;18502;43.574;1.276;2022-11-20T18:24:55;11.50;99.90
31979;DHT22;18502;43.574;1.276;2022-11-20T18:27:21;11.40;99.90
31979;DHT22;18502;43.574;1.276;2022-11-20T18:29:48;11.50;99.90
31979;DHT22;18502;43.574;1.276;2022-11-20T18:32:17;11.40;99.90
31979;DHT22;18502;43.574;1.276;2022-11-20T18:34:43;11.40;99.90
31979;DHT22;18502;43.574;1.276;2022-11-20T18:37:08;11.40;99.90
31979;DHT22;18502;43.574;1.276;2022-11-20T18:39:35;11.50;99.90
31979;DHT22;18502;43.574;1.276;2022-11-20T18:42:01;11.40;99.90
31979;DHT22;18502;43.574;1.276;2022-11-20T18:44:45;11.40;99.90
31979;DHT22;18502;43.574;1.276;2022-11-20T18:47:21;11.40;99.90
31979;DHT22;18502;43.574;1.276;2022-11-20T18:49:48;11.40;99.90
31979;DHT22;18502;43.574;1.276;2022-11-20T18:54:48;11.40;99.90
31979;DHT22;18502;43.574;1.276;2022-11-20T18:57:16;11.40;99.90
31979;DHT22;18502;43.574;1.276;2022-11-20T18:59:43;11.30;99.90
31979;DHT22;18502;43.574;1.276;2022-11-20T19:02:13;11.20;99.90
31979;DHT22;18502;43.574;1.276;2022-11-20T19:04:40;11.20;99.90
31979;DHT22;18502;43.574;1.276;2022-11-20T19:07:06;11.20;99.90
31979;DHT22;18502;43.574;1.276;2022-11-20T19:09:32;11.10;99.90
31979;DHT22;18502;43.574;1.276;2022-11-20T19:11:58;11.00;99.90
31979;DHT22;18502;43.574;1.276;2022-11-20T19:14:23;11.00;99.90
31979;DHT22;18502;43.574;1.276;2022-11-20T19:16:49;10.90;99.90
31979;DHT22;18502;43.574;1.276;2022-11-20T19:19:16;10.80;99.90
31979;DHT22;18502;43.574;1.276;2022-11-20T19:21:42;10.90;99.90
31979;DHT22;18502;43.574;1.276;2022-11-20T19:24:08;10.90;99.90
31979;DHT22;18502;43.574;1.276;2022-11-20T19:26:35;10.90;99.90
31979;DHT22;18502;43.574;1.276;2022-11-20T19:29:04;10.90;99.90
31979;DHT22;18502;43.574;1.276;2022-11-20T19:31:30;10.90;99.90
31979;DHT22;18502;43.574;1.276;2022-11-20T19:33:58;10.80;99.90
31979;DHT22;18502;43.574;1.276;2022-11-20T19:36:27;10.80;99.90
31979;DHT22;18502;43.574;1.276;2022-11-20T19:38:53;10.80;99.90
31979;DHT22;18502;43.574;1.276;2022-11-20T19:41:23;10.80;99.90
31979;DHT22;18502;43.574;1.276;2022-11-20T19:46:29;10.80;99.90
31979;DHT22;18502;43.574;1.276;2022-11-20T19:48:55;10.70;99.90
31979;DHT22;18502;43.574;1.276;2022-11-20T19:51:26;10.70;99.90
31979;DHT22;18502;43.574;1.276;2022-11-20T19:53:57;10.70;99.90
31979;DHT22;18502;43.574;1.276;2022-11-20T19:56:25;10.70;99.90
31979;DHT22;18502;43.574;1.276;2022-11-20T19:58:55;10.80;99.90
31979;DHT22;18502;43.574;1.276;2022-11-20T20:01:23;10.80;99.90
31979;DHT22;18502;43.574;1.276;2022-11-20T20:03:49;10.80;99.90
31979;DHT22;18502;43.574;1.276;2022-11-20T20:06:21;10.80;99.90
31979;DHT22;18502;43.574;1.276;2022-11-20T20:08:53;10.80;99.90
31979;DHT22;18502;43.574;1.276;2022-11-20T20:11:21;10.70;99.90
31979;DHT22;18502;43.574;1.276;2022-11-20T20:13:47;10.70;99.90
31979;DHT22;18502;43.574;1.276;2022-11-20T20:16:15;10.70;99.90
31979;DHT22;18502;43.574;1.276;2022-11-20T20:18:41;10.70;99.90
31979;DHT22;18502;43.574;1.276;2022-11-20T20:21:09;10.70;99.90
31979;DHT22;18502;43.574;1.276;2022-11-20T20:23:35;10.70;99.90
31979;DHT22;18502;43.574;1.276;2022-11-20T20:26:02;10.70;99.90
31979;DHT22;18502;43.574;1.276;2022-11-20T20:28:28;10.70;99.90
31979;DHT22;18502;43.574;1.276;2022-11-20T20:30:54;10.70;99.90
31979;DHT22;18502;43.574;1.276;2022-11-20T20:33:20;10.70;99.90
31979;DHT22;18502;43.574;1.276;2022-11-20T20:35:46;10.70;99.90
31979;DHT22;18502;43.574;1.276;2022-11-20T20:38:11;10.70;99.90
31979;DHT22;18502;43.574;1.276;2022-11-20T20:40:37;10.70;99.90
31979;DHT22;18502;43.574;1.276;2022-11-20T20:43:03;10.70;99.90
31979;DHT22;18502;43.574;1.276;2022-11-20T20:45:29;10.70;99.90
31979;DHT22;18502;43.574;1.276;2022-11-20T20:47:54;10.60;99.90
31979;DHT22;18502;43.574;1.276;2022-11-20T20:50:20;10.60;99.90
31979;DHT22;18502;43.574;1.276;2022-11-20T20:52:47;10.60;99.90
31979;DHT22;18502;43.574;1.276;2022-11-20T20:55:13;10.60;99.90
31979;DHT22;18502;43.574;1.276;2022-11-20T20:57:38;10.50;99.90
31979;DHT22;18502;43.574;1.276;2022-11-20T21:00:05;10.30;99.90
31979;DHT22;18502;43.574;1.276;2022-11-20T21:02:31;10.30;99.90
31979;DHT22;18502;43.574;1.276;2022-11-20T21:04:57;10.30;99.90
31979;DHT22;18502;43.574;1.276;2022-11-20T21:07:24;10.30;99.90
31979;DHT22;18502;43.574;1.276;2022-11-20T21:09:50;10.30;99.90
31979;DHT22;18502;43.574;1.276;2022-11-20T21:12:16;10.30;99.90
31979;DHT22;18502;43.574;1.276;2022-11-20T21:14:42;10.20;99.90
31979;DHT22;18502;43.574;1.276;2022-11-20T21:17:08;10.20;99.90
31979;DHT22;18502;43.574;1.276;2022-11-20T21:19:33;10.10;99.90
31979;DHT22;18502;43.574;1.276;2022-11-20T21:21:59;10.10;99.90
31979;DHT22;18502;43.574;1.276;2022-11-20T21:24:28;10.10;99.90
31979;DHT22;18502;43.574;1.276;2022-11-20T21:26:55;10.10;99.90
31979;DHT22;18502;43.574;1.276;2022-11-20T21:29:23;10.10;99.90
31979;DHT22;18502;43.574;1.276;2022-11-20T21:31:49;10.20;99.90
31979;DHT22;18502;43.574;1.276;2022-11-20T21:34:16;10.20;99.90
31979;DHT22;18502;43.574;1.276;2022-11-20T21:36:42;10.20;99.90
31979;DHT22;18502;43.574;1.276;2022-11-20T21:39:09;10.10;99.90
31979;DHT22;18502;43.574;1.276;2022-11-20T21:41:36;10.10;99.90
31979;DHT22;18502;43.574;1.276;2022-11-20T21:44:03;10.10;99.90
31979;DHT22;18502;43.574;1.276;2022-11-20T21:46:30;10.10;99.90
31979;DHT22;18502;43.574;1.276;2022-11-20T21:48:56;10.10;99.90
31979;DHT22;18502;43.574;1.276;2022-11-20T21:51:24;10.10;99.90
31979;DHT22;18502;43.574;1.276;2022-11-20T21:53:51;10.10;99.90
31979;DHT22;18502;43.574;1.276;2022-11-20T21:56:18;10.10;99.90
31979;DHT22;18502;43.574;1.276;2022-11-20T21:58:44;10.10;99.90
31979;DHT22;18502;43.574;1.276;2022-11-20T22:03:47;10.10;99.90
31979;DHT22;18502;43.574;1.276;2022-11-20T22:06:14;10.10;99.90
31979;DHT22;18502;43.574;1.276;2022-11-20T22:08:40;10.10;99.90
31979;DHT22;18502;43.574;1.276;2022-11-20T22:11:13;10.10;99.90
31979;DHT22;18502;43.574;1.276;2022-11-20T22:13:40;10.10;99.90
31979;DHT22;18502;43.574;1.276;2022-11-20T22:16:24;10.00;99.90
31979;DHT22;18502;43.574;1.276;2022-11-20T22:18:52;10.00;99.90
31979;DHT22;18502;43.574;1.276;2022-11-20T22:21:20;9.90;99.90
31979;DHT22;18502;43.574;1.276;2022-11-20T22:23:46;9.90;99.90
31979;DHT22;18502;43.574;1.276;2022-11-20T22:26:14;9.90;99.90
31979;DHT22;18502;43.574;1.276;2022-11-20T22:28:41;9.80;99.90
31979;DHT22;18502;43.574;1.276;2022-11-20T22:31:08;9.80;99.90
31979;DHT22;18502;43.574;1.276;2022-11-20T22:33:35;9.80;99.90
31979;DHT22;18502;43.574;1.276;2022-11-20T22:36:06;9.70;99.90
31979;DHT22;18502;43.574;1.276;2022-11-20T22:38:33;9.60;99.90
